createdAt,value
2023-01-31T00:01:56.851Z,99265.73
2023-01-31T00:04:24.765Z,99259.68
2023-01-31T00:06:54.032Z,99262.35
2023-01-31T00:09:22.340Z,99265.70
2023-01-31T00:11:50.107Z,99271.98
2023-01-31T00:14:20.275Z,99267.62
2023-01-31T00:16:48.499Z,99277.23
2023-01-31T00:19:16.785Z,99281.75
2023-01-31T00:21:47.518Z,99279.56
2023-01-31T00:24:15.986Z,99276.26
2023-01-31T00:26:44.135Z,99277.28
2023-01-31T00:29:12.137Z,99283.17
2023-01-31T00:31:40.313Z,99286.38
2023-01-31T00:34:08.931Z,99290.92
2023-01-31T00:36:37.998Z,99291.45
2023-01-31T00:39:07.787Z,99296.19
2023-01-31T00:41:38.507Z,99303.39
2023-01-31T00:44:07.117Z,99302.89
2023-01-31T00:46:35.849Z,99303.89
2023-01-31T00:49:04.889Z,99313.61
2023-01-31T00:51:32.946Z,99318.13
2023-01-31T00:54:01.035Z,99317.79
2023-01-31T00:56:29.504Z,99318.83
2023-01-31T00:58:57.378Z,99322.83
2023-01-31T07:00:15.620Z,99831.56
2023-01-31T07:02:43.547Z,99841.48
2023-01-31T07:05:11.415Z,99839.00
2023-01-31T07:07:39.743Z,99844.20
2023-01-31T07:10:09.044Z,99845.70
2023-01-31T07:12:36.960Z,99847.55
2023-01-31T07:15:05.967Z,99848.37
2023-01-31T07:17:34.131Z,99854.23
2023-01-31T07:20:01.980Z,99856.70
2023-01-31T07:22:30.115Z,99862.58
2023-01-31T07:24:58.630Z,99863.06
2023-01-31T07:27:27.796Z,99870.91
2023-01-31T07:29:56.261Z,99874.64
2023-01-31T07:32:30.055Z,99880.13
2023-01-31T07:34:58.678Z,99883.00
2023-01-31T07:37:27.340Z,99886.08
2023-01-31T07:39:55.798Z,99891.25
2023-01-31T07:42:24.393Z,99892.45
2023-01-31T07:44:52.736Z,99901.55
2023-01-31T07:47:21.236Z,99905.07
2023-01-31T07:49:51.057Z,99910.95
2023-01-31T07:52:19.208Z,99915.35
2023-01-31T07:54:47.924Z,99914.88
2023-01-31T07:57:20.554Z,99922.39
2023-01-31T07:59:49.060Z,99927.59
2023-01-31T08:02:37.380Z,99929.95
2023-01-31T08:05:07.284Z,99939.21
2023-01-31T08:07:35.888Z,99938.32
2023-01-31T08:10:05.138Z,99937.70
2023-01-31T08:12:33.497Z,99946.11
2023-01-31T08:15:03.885Z,99945.48
2023-01-31T08:17:33.975Z,99950.09
2023-01-31T08:20:03.234Z,99955.02
2023-01-31T08:22:31.740Z,99955.52
2023-01-31T08:24:59.697Z,99951.59
2023-01-31T08:27:27.837Z,99956.11
2023-01-31T08:29:55.771Z,99956.77
2023-01-31T08:32:23.699Z,99957.96
2023-01-31T08:34:51.630Z,99962.95
2023-01-31T08:37:19.641Z,99960.80
2023-01-31T08:39:48.981Z,99962.20
2023-01-31T08:42:16.786Z,99963.08
2023-01-31T08:44:44.764Z,99963.16
2023-01-31T08:47:12.806Z,99969.21
2023-01-31T08:49:40.788Z,99972.70
2023-01-31T08:52:08.624Z,99971.20
2023-01-31T08:54:36.614Z,99976.02
2023-01-31T08:57:04.518Z,99975.98
2023-01-31T08:59:32.832Z,99974.73
2023-01-31T09:02:01.490Z,99980.56
2023-01-31T09:04:30.003Z,99979.48
2023-01-31T09:06:57.974Z,99978.27
2023-01-31T09:09:26.328Z,99978.61
2023-01-31T09:11:54.633Z,99981.66
2023-01-31T09:14:22.894Z,99981.08
2023-01-31T09:16:50.952Z,99982.83
2023-01-31T09:19:19.049Z,99986.45
2023-01-31T09:21:47.010Z,99987.17
2023-01-31T09:24:14.988Z,99990.02
2023-01-31T09:26:43.079Z,99989.66
2023-01-31T09:29:11.017Z,99994.86
2023-01-31T09:31:38.910Z,99991.45
2023-01-31T09:34:06.952Z,100001.08
2023-01-31T09:36:35.021Z,99997.45
2023-01-31T09:39:02.991Z,100004.41
2023-01-31T09:41:34.249Z,100003.85
2023-01-31T09:44:06.971Z,100008.98
2023-01-31T09:46:45.164Z,100012.94
2023-01-31T09:49:25.909Z,100017.39
2023-01-31T09:51:58.586Z,100016.55
2023-01-31T09:54:33.917Z,100022.79
2023-01-31T09:57:42.365Z,100025.73
2023-01-31T10:00:16.390Z,100026.78
2023-01-31T10:02:53.324Z,100023.45
2023-01-31T10:05:24.489Z,100020.59
2023-01-31T10:08:37.389Z,100017.71
2023-01-31T10:11:13.452Z,100018.77
2023-01-31T10:13:51.961Z,100020.09
2023-01-31T10:16:22.795Z,100017.55
2023-01-31T10:19:05.469Z,100020.23
2023-01-31T10:21:41.230Z,100017.05
2023-01-31T10:24:29.509Z,100019.61
2023-01-31T10:27:07.256Z,100012.98
2023-01-31T10:29:45.183Z,100015.59
2023-01-31T10:32:31.515Z,100018.48
2023-01-31T10:35:10.325Z,100018.95
2023-01-31T10:37:52.832Z,100012.27
2023-01-31T10:40:36.795Z,100011.06
2023-01-31T10:43:22.576Z,100013.88
2023-01-31T10:45:50.570Z,100008.27
2023-01-31T10:48:26.481Z,100013.39
2023-01-31T10:51:09.712Z,100011.40
2023-01-31T10:53:43.916Z,100014.58
2023-01-31T10:56:32.727Z,100015.67
2023-01-31T10:59:05.728Z,100012.64
2023-01-31T11:01:36.461Z,100013.59
2023-01-31T11:04:25.545Z,100018.52
2023-01-31T11:06:54.321Z,100014.73
2023-01-31T11:09:23.839Z,100019.92
2023-01-31T11:12:01.383Z,100015.54
2023-01-31T11:14:32.605Z,100017.48
2023-01-31T11:17:21.403Z,100013.29
2023-01-31T11:19:55.274Z,100018.79
2023-01-31T11:22:29.496Z,100015.07
2023-01-31T11:24:59.922Z,100012.56
2023-01-31T11:27:36.156Z,100018.70
2023-01-31T11:30:06.463Z,100017.33
2023-01-31T11:32:37.556Z,100021.83
2023-01-31T11:35:15.131Z,100022.48
2023-01-31T11:38:02.981Z,100020.97
2023-01-31T11:40:32.574Z,100015.05
2023-01-31T11:43:03.002Z,100014.43
2023-01-31T11:45:34.161Z,100015.24
2023-01-31T11:48:23.310Z,100019.34
2023-01-31T11:51:00.489Z,100013.91
2023-01-31T11:53:32.819Z,100013.62
2023-01-31T11:56:10.100Z,100014.52
2023-01-31T11:58:42.030Z,100012.23
2023-01-31T12:01:14.495Z,100003.06
2023-01-31T12:04:01.748Z,100004.75
2023-01-31T12:06:35.095Z,100005.66
2023-01-31T12:09:18.364Z,100003.92
2023-01-31T12:11:55.506Z,100002.02
2023-01-31T12:14:28.121Z,100000.44
2023-01-31T12:16:56.913Z,100000.58
2023-01-31T12:19:50.136Z,99996.08
2023-01-31T12:22:39.094Z,99999.17
2023-01-31T12:25:40.957Z,99993.80
2023-01-31T12:28:37.902Z,99991.77
2023-01-31T12:31:23.807Z,99990.69
2023-01-31T12:33:58.376Z,99985.48
2023-01-31T12:37:01.569Z,99988.52
2023-01-31T12:40:22.764Z,99985.88
2023-01-31T12:43:25.999Z,99990.42
2023-01-31T12:45:53.832Z,99988.21
2023-01-31T12:48:31.482Z,99990.71
2023-01-31T12:51:42.759Z,99997.54
2023-01-31T12:54:25.610Z,99986.90
2023-01-31T12:57:07.316Z,99995.33
2023-01-31T13:00:16.530Z,99994.19
2023-01-31T13:03:01.293Z,99990.06
2023-01-31T13:05:39.572Z,99987.05
2023-01-31T13:08:20.536Z,99987.18
2023-01-31T13:10:56.138Z,99987.38
2023-01-31T13:13:29.536Z,99982.49
2023-01-31T13:16:10.730Z,99978.27
2023-01-31T13:18:40.157Z,99982.48
2023-01-31T13:21:13.503Z,99984.27
2023-01-31T13:23:49.191Z,99981.33
2023-01-31T13:26:26.705Z,99979.73
2023-01-31T13:28:54.633Z,99979.58
2023-01-31T13:31:29.082Z,99978.14
2023-01-31T13:34:18.760Z,99980.62
2023-01-31T13:36:51.092Z,99977.89
2023-01-31T13:39:27.774Z,99976.20
2023-01-31T13:41:55.616Z,99974.08
2023-01-31T13:44:23.371Z,99975.87
2023-01-31T13:47:01.160Z,99976.46
2023-01-31T13:49:31.621Z,99972.90
2023-01-31T13:52:03.670Z,99972.17
2023-01-31T13:54:54.464Z,99974.52
2023-01-31T13:57:35.418Z,99973.91
2023-01-31T14:00:11.100Z,99973.13
2023-01-31T14:02:38.947Z,99968.23
2023-01-31T14:05:45.035Z,99963.17
2023-01-31T14:08:31.736Z,99957.10
2023-01-31T14:11:25.703Z,99956.29
2023-01-31T14:14:19.197Z,99957.10
2023-01-31T14:16:51.754Z,99958.23
2023-01-31T14:19:23.744Z,99955.16
2023-01-31T14:22:18.788Z,99950.50
2023-01-31T14:25:00.472Z,99946.80
2023-01-31T14:27:52.773Z,99942.91
2023-01-31T14:30:33.142Z,99944.22
2023-01-31T14:33:13.318Z,99947.90
2023-01-31T14:35:44.075Z,99946.91
2023-01-31T14:38:33.855Z,99946.91
2023-01-31T14:41:13.612Z,99943.80
2023-01-31T14:43:56.501Z,99944.77
2023-01-31T14:46:55.607Z,99936.20
2023-01-31T14:49:35.566Z,99934.29
2023-01-31T14:52:36.818Z,99927.65
2023-01-31T14:55:29.753Z,99923.71
2023-01-31T14:58:01.267Z,99926.26
2023-01-31T15:00:32.564Z,99924.18
2023-01-31T15:03:08.195Z,99924.96
2023-01-31T15:05:36.172Z,99928.45
2023-01-31T15:08:13.341Z,99930.70
2023-01-31T15:11:04.716Z,99932.23
2023-01-31T15:13:35.554Z,99926.77
2023-01-31T15:16:07.737Z,99928.77
2023-01-31T15:18:36.074Z,99927.36
2023-01-31T15:21:07.618Z,99926.81
2023-01-31T15:23:40.984Z,99925.90
2023-01-31T15:26:11.118Z,99919.63
2023-01-31T15:28:45.141Z,99919.38
2023-01-31T15:31:24.115Z,99918.45
2023-01-31T15:34:12.237Z,99917.19
2023-01-31T15:37:05.508Z,99916.12
2023-01-31T15:42:49.484Z,99914.62
2023-01-31T15:45:24.564Z,99909.72
2023-01-31T15:48:02.530Z,99911.02
2023-01-31T15:50:35.301Z,99909.48
2023-01-31T15:53:07.937Z,99904.52
2023-01-31T15:55:37.719Z,99905.16
2023-01-31T15:58:07.048Z,99907.71
2023-01-31T16:00:39.250Z,99910.55
2023-01-31T16:03:19.848Z,99918.59
2023-01-31T16:05:51.638Z,99920.82
2023-01-31T16:08:22.028Z,99920.06
2023-01-31T16:10:50.745Z,99920.41
2023-01-31T16:13:20.411Z,99919.19
2023-01-31T16:15:51.680Z,99922.65
2023-01-31T16:18:21.179Z,99921.61
2023-01-31T16:20:55.628Z,99918.40
2023-01-31T16:23:37.393Z,99913.70
2023-01-31T16:26:29.240Z,99912.66
2023-01-31T16:29:02.382Z,99906.96
2023-01-31T16:31:36.614Z,99900.90
2023-01-31T16:34:19.907Z,99899.75
2023-01-31T16:36:52.104Z,99894.27
2023-01-31T16:39:38.957Z,99892.77
2023-01-31T16:42:17.152Z,99896.27
2023-01-31T16:44:47.228Z,99893.92
2023-01-31T16:47:40.223Z,99890.27
2023-01-31T16:50:26.850Z,99883.61
2023-01-31T16:53:34.223Z,99875.02
2023-01-31T16:56:18.296Z,99872.97
2023-01-31T16:58:57.454Z,99873.48
2023-01-31T17:01:37.951Z,99870.30
2023-01-31T17:04:09.708Z,99865.18
2023-01-31T17:06:39.228Z,99863.10
2023-01-31T17:09:15.349Z,99855.32
2023-01-31T17:11:43.973Z,99853.27
2023-01-31T17:14:12.471Z,99850.40
2023-01-31T17:16:41.092Z,99846.70
2023-01-31T17:19:08.948Z,99851.23
2023-01-31T17:21:42.953Z,99848.34
2023-01-31T17:24:14.050Z,99845.64
2023-01-31T17:26:42.968Z,99843.11
2023-01-31T17:29:12.086Z,99840.40
2023-01-31T17:31:42.732Z,99838.75
2023-01-31T17:34:14.713Z,99831.84
2023-01-31T17:36:44.462Z,99832.84
2023-01-31T17:39:13.293Z,99821.13
2023-01-31T17:41:42.636Z,99812.63
2023-01-31T17:44:15.303Z,99812.48
2023-01-31T17:46:43.925Z,99808.67
2023-01-31T17:49:11.815Z,99802.21
2023-01-31T17:51:40.619Z,99795.00
2023-01-31T17:54:10.284Z,99792.88
2023-01-31T17:56:41.607Z,99788.56
2023-01-31T17:59:25.353Z,99784.73
2023-01-31T18:02:01.341Z,99781.88
2023-01-31T18:04:30.416Z,99772.20
2023-01-31T18:07:04.974Z,99769.96
2023-01-31T18:09:33.884Z,99768.00
2023-01-31T18:12:02.607Z,99759.58
2023-01-31T18:14:33.260Z,99752.84
2023-01-31T18:17:07.587Z,99750.66
2023-01-31T18:19:37.333Z,99746.88
2023-01-31T18:22:06.504Z,99743.83
2023-01-31T18:24:35.516Z,99744.35
2023-01-31T18:27:09.641Z,99738.13
2023-01-31T18:29:42.626Z,99733.95
2023-01-31T18:32:11.962Z,99731.54
2023-01-31T18:34:46.207Z,99725.04
2023-01-31T18:37:22.884Z,99722.99
2023-01-31T18:39:55.698Z,99721.96
2023-01-31T18:42:29.510Z,99718.93
2023-01-31T18:45:03.656Z,99714.81
2023-01-31T18:47:39.743Z,99704.50
2023-01-31T18:50:17.349Z,99703.45
2023-01-31T18:52:53.634Z,99694.69
2023-01-31T18:55:23.402Z,99697.20
2023-01-31T18:57:59.906Z,99695.96
2023-01-31T19:00:31.742Z,99690.77
2023-01-31T19:03:04.772Z,99686.94
2023-01-31T19:05:39.105Z,99683.16
2023-01-31T19:08:13.251Z,99679.86
2023-01-31T19:10:46.995Z,99678.14
2023-01-31T19:13:31.605Z,99669.95
2023-01-31T19:16:12.804Z,99668.27
2023-01-31T19:18:44.950Z,99661.48
2023-01-31T19:21:19.482Z,99658.67
2023-01-31T19:23:55.869Z,99649.45
2023-01-31T19:26:24.812Z,99647.60
2023-01-31T19:28:53.309Z,99642.49
2023-01-31T19:31:27.404Z,99638.14
2023-01-31T19:34:01.195Z,99631.43
2023-01-31T19:36:57.371Z,99626.75
2023-01-31T19:39:33.141Z,99617.88
2023-01-31T19:42:02.470Z,99608.33
2023-01-31T19:44:32.098Z,99605.22
2023-01-31T19:47:01.577Z,99598.53
2023-01-31T19:49:35.184Z,99593.02
2023-01-31T19:52:04.410Z,99579.79
2023-01-31T19:54:34.251Z,99572.89
2023-01-31T19:57:03.635Z,99572.05
2023-01-31T19:59:34.334Z,99569.41
2023-01-31T20:02:03.844Z,99563.86
2023-01-31T20:04:32.854Z,99552.52
2023-01-31T20:07:00.632Z,99548.54
2023-01-31T20:09:28.579Z,99534.95
2023-01-31T20:11:56.445Z,99527.21
2023-01-31T20:14:24.309Z,99525.35
2023-01-31T20:16:52.307Z,99516.91
2023-01-31T20:19:22.660Z,99510.04
2023-01-31T20:21:50.680Z,99509.72
2023-01-31T20:24:18.747Z,99506.08
2023-01-31T20:26:47.076Z,99503.57
2023-01-31T20:29:15.885Z,99500.37
2023-01-31T20:31:43.957Z,99494.77
2023-01-31T20:34:11.955Z,99491.08
2023-01-31T20:36:39.785Z,99492.30
2023-01-31T20:39:07.944Z,99490.57
2023-01-31T20:41:37.719Z,99483.67
2023-01-31T20:44:06.406Z,99478.58
2023-01-31T20:46:34.220Z,99481.30
2023-01-31T20:49:01.984Z,99474.41
2023-01-31T20:51:29.748Z,99468.65
2023-01-31T20:53:59.052Z,99465.52
2023-01-31T20:56:26.936Z,99459.70
2023-01-31T20:58:54.802Z,99462.41
2023-01-31T21:01:22.842Z,99453.38
2023-01-31T21:03:52.525Z,99444.59
2023-01-31T21:06:20.902Z,99442.95
2023-01-31T21:08:48.827Z,99435.94
2023-01-31T21:11:16.640Z,99431.25
2023-01-31T21:13:44.657Z,99423.70
2023-01-31T21:16:17.007Z,99421.16
2023-01-31T21:18:45.638Z,99414.43
2023-01-31T21:21:23.758Z,99412.05
2023-01-31T21:23:59.924Z,99411.77
2023-01-31T21:26:28.127Z,99400.05
2023-01-31T21:28:56.042Z,99396.70
2023-01-31T21:31:26.878Z,99395.50
2023-01-31T21:33:56.256Z,99392.31
2023-01-31T21:36:25.567Z,99393.35
2023-01-31T21:38:53.644Z,99397.12
2023-01-31T21:41:41.608Z,99398.64
2023-01-31T21:44:10.200Z,99388.55
2023-01-31T21:46:38.070Z,99378.08
2023-01-31T21:49:05.909Z,99367.65
2023-01-31T21:51:34.095Z,99365.65
2023-01-31T21:54:01.896Z,99362.64
2023-01-31T21:56:31.140Z,99353.89
2023-01-31T21:58:59.279Z,99354.71
2023-01-31T22:01:30.295Z,99353.16
2023-01-31T22:03:59.071Z,99344.93
2023-01-31T22:06:31.703Z,99337.77
2023-01-31T22:09:01.528Z,99331.13
2023-01-31T22:11:33.194Z,99326.20
2023-01-31T22:14:04.468Z,99330.98
2023-01-31T22:16:32.339Z,99322.39
2023-01-31T22:19:01.419Z,99318.02
2023-01-31T22:21:31.968Z,99311.37
2023-01-31T22:24:01.594Z,99310.73
2023-01-31T22:26:32.312Z,99308.77
2023-01-31T22:29:03.792Z,99308.45
2023-01-31T22:31:32.518Z,99300.30
2023-01-31T22:34:01.188Z,99296.31
2023-01-31T22:36:29.133Z,99292.15
2023-01-31T22:38:56.935Z,99288.65
2023-01-31T22:41:25.677Z,99283.33
2023-01-31T22:43:55.196Z,99280.38
2023-01-31T22:46:26.719Z,99281.16
2023-01-31T22:48:55.519Z,99271.98
2023-01-31T22:51:26.380Z,99269.96
2023-01-31T22:53:56.051Z,99262.98
2023-01-31T22:56:27.514Z,99266.41
2023-01-31T22:58:57.525Z,99261.73
2023-01-31T23:01:27.964Z,99259.27
2023-01-31T23:04:00.819Z,99252.27
2023-01-31T23:06:29.270Z,99255.21
2023-01-31T23:08:57.574Z,99254.20
2023-01-31T23:11:25.864Z,99250.43
2023-01-31T23:13:54.122Z,99246.64
2023-01-31T23:16:43.713Z,99241.33
2023-01-31T23:19:14.512Z,99243.27
2023-01-31T23:21:42.948Z,99247.37
2023-01-31T23:24:12.269Z,99251.27
2023-01-31T23:26:40.045Z,99256.08
2023-01-31T23:29:07.950Z,99255.23
2023-01-31T23:31:35.806Z,99248.02
2023-01-31T23:34:06.125Z,99246.86
2023-01-31T23:36:33.881Z,99247.83
2023-01-31T23:39:01.672Z,99243.95
2023-01-31T23:41:29.435Z,99236.20
2023-01-31T23:43:57.066Z,99235.72
2023-01-31T23:46:24.772Z,99229.67
2023-01-31T23:48:52.599Z,99225.13
2023-01-31T23:51:20.280Z,99219.95
2023-01-31T23:53:48.037Z,99214.08
2023-01-31T23:56:15.724Z,99219.46
2023-01-31T23:58:43.452Z,99215.45
